This is the latest recevied weather packets stored in our database for station/object OK1VCF-6. If no packets are shown the sender has not sent any weather packets the latest 10 day(s).
| Time | Temp. | Humidity | Pressure | Rain* | Wind** | Luminosity | Snow |
|---|---|---|---|---|---|---|---|
| 1777638855 | 17.78° C | 52% | 1028.7 hPa | - | - | - | - |
| 1777635236 | 17.22° C | 47% | 1029 hPa | - | - | - | - |
| 1777631625 | 16.67° C | 53% | 1029.2 hPa | - | - | - | - |
| 1777628925 | 15.56° C | 54% | 1029.4 hPa | - | - | - | - |
| 1777628923 | 15.56° C | 54% | 1029.4 hPa | - | - | - | - |
| 1777628025 | 15° C | 49% | 1029.5 hPa | - | - | - | - |
| 1777623494 | 12.78° C | 56% | 1029.6 hPa | - | - | - | - |
| 1777619856 | 10.56° C | 60% | 1029.6 hPa | - | - | - | - |
| 1777617130 | 8.89° C | 72% | 1029.6 hPa | - | - | - | - |
| 1777609899 | 4.44° C | 86% | 1029.6 hPa | - | - | - | - |
| 1777608097 | 4.44° C | 86% | 1029.6 hPa | - | - | - | - |
| 1777606301 | 5° C | 84% | 1029.6 hPa | - | - | - | - |
| 1777600948 | 5° C | 86% | 1029.4 hPa | - | - | - | - |
| 1777600892 | 5° C | 86% | 1029.4 hPa | - | - | - | - |
| 1777598196 | 4.44° C | 86% | 1029.4 hPa | - | - | - | - |
| 1777571078 | 10.56° C | 56% | 1029.2 hPa | - | - | - | - |
| 1777567457 | 13.33° C | 47% | 1029 hPa | - | - | - | - |
| 1777561145 | 12.22° C | 50% | 1029.6 hPa | - | - | - | - |
| 1777560221 | 12.22° C | 54% | 1029.6 hPa | - | - | - | - |
| 1777557512 | 11.67° C | 52% | 1030 hPa | - | - | - | - |
| 1777556578 | 11.11° C | 48% | 1030 hPa | - | - | - | - |
| 1777552079 | 12.22° C | 48% | 1030.3 hPa | - | - | - | - |
| 1777547558 | 12.22° C | 38% | 1030.5 hPa | - | - | - | - |
| 1777541235 | 8.89° C | 41% | 1031.4 hPa | - | - | - | - |
| 1777538533 | 7.78° C | 44% | 1031.6 hPa | - | - | - | - |
* Rain since midnight (hover to see other rain measurements)
** Current wind speed in m/s (hover to see current wind gust speed)